Time;durP1;ratioP1;P1;durP2;ratioP2;P2;SDS_P1;SDS_P2;PMS_P1;PMS_P2;Temp;Humidity;BMP_temperature;BMP_pressure;BME280_temperature;BME280_humidity;BME280_pressure;Samples;Min_cycle;Max_cycle;Signal;HPM_P1;HPM_P2
2021/12/12 00:01:44;;;;;;;13.70;9.25;;;1.10;99.90;;;;;;5012002;28;20136;-74
2021/12/12 00:04:15;;;;;;;17.95;9.50;;;1.10;99.90;;;;;;5012726;28;20069;-74
2021/12/12 00:06:49;;;;;;;14.20;9.75;;;1.10;99.90;;;;;;5013382;28;20501;-74
2021/12/12 00:09:41;;;;;;;15.60;10.63;;;1.10;99.90;;;;;;5011878;28;20471;-74
2021/12/12 00:12:20;;;;;;;14.75;9.77;;;1.10;99.90;;;;;;5012034;28;20049;-74
2021/12/12 00:14:54;;;;;;;14.95;9.95;;;1.10;99.90;;;;;;5021918;28;20132;-74
2021/12/12 00:17:23;;;;;;;17.63;10.48;;;1.10;99.90;;;;;;5032887;28;20093;-74
2021/12/12 00:19:55;;;;;;;15.68;9.95;;;1.10;99.90;;;;;;5032070;28;20399;-74
2021/12/12 00:22:29;;;;;;;16.90;9.65;;;1.10;99.90;;;;;;5031345;28;20077;-74
2021/12/12 00:24:56;;;;;;;15.18;10.38;;;1.10;99.90;;;;;;5019383;28;20046;-74
2021/12/12 00:27:28;;;;;;;15.35;9.57;;;1.10;99.90;;;;;;5013048;28;20052;-74
2021/12/12 00:30:04;;;;;;;17.23;10.48;;;1.10;99.90;;;;;;5011833;28;20110;-74
2021/12/12 00:32:37;;;;;;;15.48;9.43;;;1.10;99.90;;;;;;5011735;28;20117;-74
2021/12/12 00:35:14;;;;;;;14.80;10.10;;;1.10;99.90;;;;;;5011747;28;20571;-74
2021/12/12 00:37:42;;;;;;;15.38;9.68;;;1.10;99.90;;;;;;4995281;28;20065;-74
2021/12/12 00:40:25;;;;;;;14.82;9.30;;;1.10;99.90;;;;;;5012902;28;20136;-74
2021/12/12 00:42:55;;;;;;;16.52;9.55;;;1.20;99.90;;;;;;5011358;28;20050;-74
2021/12/12 00:45:23;;;;;;;14.57;9.35;;;1.20;99.90;;;;;;5015429;28;20060;-74
2021/12/12 00:47:55;;;;;;;12.93;8.98;;;1.10;99.90;;;;;;5014932;28;20053;-73
2021/12/12 00:50:36;;;;;;;15.75;9.40;;;1.10;99.90;;;;;;5031758;28;20049;-74
2021/12/12 00:53:08;;;;;;;15.68;9.13;;;1.10;99.90;;;;;;5032368;28;20064;-74
2021/12/12 00:55:44;;;;;;;15.10;9.77;;;1.10;99.90;;;;;;5014945;28;20141;-74
2021/12/12 00:58:17;;;;;;;12.90;9.40;;;1.00;99.90;;;;;;5012381;28;20117;-74
2021/12/12 01:01:03;;;;;;;17.83;11.10;;;1.10;99.90;;;;;;5011190;28;20069;-74
2021/12/12 01:03:38;;;;;;;13.48;10.02;;;1.10;99.90;;;;;;5011018;28;20176;-74
2021/12/12 01:06:12;;;;;;;18.55;10.82;;;1.10;99.90;;;;;;5013728;28;20045;-74
2021/12/12 01:08:46;;;;;;;23.25;11.98;;;1.10;99.90;;;;;;5032185;28;20124;-74
2021/12/12 01:11:31;;;;;;;16.53;10.20;;;1.10;99.90;;;;;;5030859;28;20464;-74
2021/12/12 01:14:10;;;;;;;16.08;10.45;;;1.20;99.90;;;;;;5030897;28;20298;-74
2021/12/12 01:16:42;;;;;;;15.02;9.27;;;1.20;99.90;;;;;;5023734;28;20045;-74
2021/12/12 01:19:41;;;;;;;20.25;10.80;;;1.20;99.90;;;;;;5010913;28;20121;-74
2021/12/12 01:22:19;;;;;;;17.05;10.23;;;1.20;99.90;;;;;;5010921;28;20124;-74
2021/12/12 01:24:53;;;;;;;15.00;9.70;;;1.20;99.90;;;;;;5020465;28;20389;-74
2021/12/12 01:27:25;;;;;;;13.65;10.20;;;1.20;99.90;;;;;;5030461;28;20136;-74
2021/12/12 01:29:57;;;;;;;18.67;10.75;;;1.20;99.90;;;;;;5031791;28;20077;-74
2021/12/12 01:32:28;;;;;;;17.27;10.30;;;1.20;99.90;;;;;;5026782;28;20125;-74
2021/12/12 01:35:01;;;;;;;15.68;9.98;;;1.10;99.90;;;;;;5010427;28;20050;-74
2021/12/12 01:37:37;;;;;;;17.08;10.63;;;1.10;99.90;;;;;;5010665;28;20052;-74
2021/12/12 01:40:22;;;;;;;14.63;9.82;;;1.10;99.90;;;;;;5010513;28;20042;-74
2021/12/12 01:43:00;;;;;;;16.92;10.32;;;1.10;99.90;;;;;;5016985;28;20065;-74
2021/12/12 01:45:31;;;;;;;20.02;10.25;;;1.10;99.90;;;;;;5030010;28;20108;-74
2021/12/12 01:48:07;;;;;;;15.88;10.10;;;1.00;99.90;;;;;;5030529;28;20494;-74
2021/12/12 01:50:45;;;;;;;17.10;11.57;;;1.00;99.90;;;;;;5030389;28;20420;-74
2021/12/12 01:53:15;;;;;;;16.75;11.05;;;1.00;99.90;;;;;;5032474;28;20065;-74
2021/12/12 01:55:53;;;;;;;16.00;10.73;;;1.00;99.90;;;;;;4999676;28;20068;-73
2021/12/12 01:58:25;;;;;;;17.13;10.25;;;1.10;99.90;;;;;;5010487;28;20069;-73
2021/12/12 02:00:57;;;;;;;17.08;11.25;;;1.10;99.90;;;;;;5009898;28;20038;-74
2021/12/12 02:03:34;;;;;;;14.88;9.70;;;1.10;99.90;;;;;;5010967;28;20128;-74
2021/12/12 02:06:15;;;;;;;15.73;10.40;;;1.10;99.90;;;;;;5012334;28;20096;-74
2021/12/12 02:08:49;;;;;;;14.98;10.48;;;1.10;99.90;;;;;;5030362;28;20128;-74
2021/12/12 02:11:26;;;;;;;12.75;8.32;;;1.10;99.90;;;;;;5029534;28;20132;-73
2021/12/12 02:14:08;;;;;;;15.85;10.55;;;1.10;99.90;;;;;;5029822;28;20142;-74
2021/12/12 02:16:45;;;;;;;14.98;10.65;;;1.10;99.90;;;;;;5029640;28;20049;-74
2021/12/12 02:19:27;;;;;;;16.55;10.65;;;1.10;99.90;;;;;;5020983;28;20117;-74
2021/12/12 02:22:10;;;;;;;13.88;10.13;;;1.10;99.90;;;;;;5011364;28;20128;-74
2021/12/12 02:35:54;;;;;;;14.90;10.30;;;1.10;99.90;;;;;;5014216;28;20456;-74
2021/12/12 02:38:30;;;;;;;15.98;10.18;;;1.10;99.90;;;;;;5013454;28;20129;-74
2021/12/12 02:41:06;;;;;;;18.83;10.63;;;1.20;99.90;;;;;;5015077;28;20045;-74
2021/12/12 02:43:49;;;;;;;17.23;10.65;;;1.20;99.90;;;;;;5017025;28;20049;-74
2021/12/12 02:46:32;;;;;;;18.92;10.35;;;1.20;99.90;;;;;;4997995;28;20134;-74
2021/12/12 02:49:11;;;;;;;17.88;10.70;;;1.10;99.90;;;;;;5013777;28;20069;-74
2021/12/12 02:51:43;;;;;;;15.90;10.35;;;1.10;99.90;;;;;;5013965;28;20056;-74
2021/12/12 02:54:16;;;;;;;16.17;10.75;;;1.10;99.90;;;;;;5013168;28;20054;-73
2021/12/12 02:56:51;;;;;;;15.23;9.68;;;1.00;99.90;;;;;;5002024;28;20136;-75
2021/12/12 02:59:24;;;;;;;16.20;9.63;;;1.00;99.90;;;;;;5034547;28;20121;-74
2021/12/12 03:02:07;;;;;;;11.37;7.63;;;1.00;99.90;;;;;;5033272;28;20055;-73
2021/12/12 03:04:40;;;;;;;14.90;9.52;;;0.90;99.90;;;;;;5033001;28;20404;-74
2021/12/12 03:07:11;;;;;;;13.43;8.50;;;0.90;99.90;;;;;;5025934;28;20041;-74
2021/12/12 03:09:48;;;;;;;15.32;9.68;;;0.90;99.90;;;;;;5013375;28;20505;-74
2021/12/12 03:12:31;;;;;;;13.27;9.20;;;0.90;99.90;;;;;;5013099;28;20053;-74
2021/12/12 03:15:14;;;;;;;12.52;8.40;;;0.80;99.90;;;;;;5012788;28;20600;-74
2021/12/12 03:17:48;;;;;;;12.50;7.93;;;0.80;99.90;;;;;;5012983;28;20046;-74
2021/12/12 03:20:24;;;;;;;12.32;8.27;;;0.70;99.90;;;;;;5030781;28;20049;-74
2021/12/12 03:23:05;;;;;;;11.70;7.68;;;0.70;99.90;;;;;;5032796;28;20099;-74
2021/12/12 03:25:39;;;;;;;13.38;8.35;;;0.70;99.90;;;;;;5032685;28;20034;-74
2021/12/12 03:28:15;;;;;;;11.57;8.05;;;0.70;99.90;;;;;;5032858;28;20095;-74
2021/12/12 03:30:49;;;;;;;11.32;7.65;;;0.60;99.90;;;;;;5028426;28;20124;-73
2021/12/12 03:33:22;;;;;;;13.85;9.20;;;0.60;99.90;;;;;;5022430;28;20080;-73
2021/12/12 03:35:52;;;;;;;12.38;8.38;;;0.60;99.90;;;;;;5033745;28;20128;-73
2021/12/12 03:38:30;;;;;;;12.88;8.07;;;0.50;99.90;;;;;;5033584;28;20046;-73
2021/12/12 03:41:00;;;;;;;12.20;8.10;;;0.50;99.90;;;;;;5032453;28;20042;-73
2021/12/12 03:43:33;;;;;;;13.50;8.00;;;0.50;99.90;;;;;;5004360;28;20120;-73
2021/12/12 03:46:10;;;;;;;12.55;7.75;;;0.50;99.90;;;;;;5012647;28;20125;-73
2021/12/12 03:48:40;;;;;;;14.02;8.63;;;0.50;99.90;;;;;;5012488;28;20484;-72
2021/12/12 03:51:16;;;;;;;13.15;7.80;;;0.40;99.90;;;;;;5012565;28;20405;-74
2021/12/12 03:53:44;;;;;;;11.77;8.35;;;0.40;99.90;;;;;;5012227;28;20508;-74
2021/12/12 03:56:12;;;;;;;12.52;8.60;;;0.40;99.90;;;;;;5011893;28;20073;-73
2021/12/12 03:58:40;;;;;;;13.75;8.68;;;0.40;99.90;;;;;;5032239;28;20037;-73
2021/12/12 04:01:13;;;;;;;13.07;8.50;;;0.40;99.90;;;;;;5032067;28;20069;-72
2021/12/12 04:03:48;;;;;;;12.75;7.65;;;0.40;99.90;;;;;;5032046;28;20041;-73
2021/12/12 04:06:19;;;;;;;12.38;7.85;;;0.40;99.90;;;;;;5033034;28;20041;-73
2021/12/12 04:08:49;;;;;;;14.35;8.20;;;0.30;99.90;;;;;;5012077;28;20471;-73
2021/12/12 04:11:30;;;;;;;11.80;8.00;;;0.40;99.90;;;;;;5012044;28;20058;-73
2021/12/12 04:13:58;;;;;;;13.25;8.07;;;0.40;99.90;;;;;;4995767;28;20145;-74
2021/12/12 04:16:28;;;;;;;14.43;7.72;;;0.50;99.90;;;;;;4995533;28;20077;-73
2021/12/12 04:18:55;;;;;;;12.10;8.18;;;0.50;99.90;;;;;;4999219;28;20128;-74
2021/12/12 04:21:28;;;;;;;12.00;7.88;;;0.60;99.90;;;;;;5031500;28;20096;-73
2021/12/12 04:24:00;;;;;;;10.95;7.32;;;0.60;99.90;;;;;;5031478;28;20052;-74
2021/12/12 04:26:41;;;;;;;11.10;7.13;;;0.60;99.90;;;;;;5032992;28;20045;-73
2021/12/12 04:29:18;;;;;;;11.85;7.68;;;0.60;99.90;;;;;;5031715;28;20052;-73
2021/12/12 04:31:57;;;;;;;12.10;7.65;;;0.60;99.90;;;;;;5005662;28;20141;-76
2021/12/12 04:34:26;;;;;;;11.70;7.43;;;0.60;99.90;;;;;;5009217;28;20550;-74
2021/12/12 04:37:00;;;;;;;9.77;7.25;;;0.60;99.90;;;;;;5037677;28;20499;-76
2021/12/12 04:39:31;;;;;;;11.55;7.60;;;0.60;99.90;;;;;;5043953;28;20033;-74
2021/12/12 04:42:24;;;;;;;9.98;6.88;;;0.60;99.90;;;;;;5036899;28;20065;-74
2021/12/12 04:45:27;;;;;;;10.52;7.25;;;0.60;99.90;;;;;;5041686;28;20091;-74
2021/12/12 04:51:29;;;;;;;9.73;6.55;;;0.50;99.90;;;;;;5019282;28;20064;-74
2021/12/12 04:54:22;;;;;;;10.13;6.17;;;0.60;99.90;;;;;;5040654;28;20045;-74
2021/12/12 04:57:22;;;;;;;10.73;5.90;;;0.80;99.90;;;;;;5025474;28;20418;-74
2021/12/12 05:00:02;;;;;;;8.93;6.28;;;0.90;99.90;;;;;;5047907;28;20044;-75
2021/12/12 05:02:34;;;;;;;9.43;6.45;;;0.90;99.90;;;;;;5019643;28;20081;-74
2021/12/12 05:05:21;;;;;;;11.40;6.38;;;0.90;99.90;;;;;;5025820;28;20645;-73
2021/12/12 05:07:59;;;;;;;11.40;6.82;;;0.90;99.90;;;;;;5019903;28;20504;-74
2021/12/12 05:10:39;;;;;;;10.85;6.75;;;1.00;99.90;;;;;;5023658;28;20136;-74
2021/12/12 05:13:44;;;;;;;9.15;6.07;;;1.00;99.90;;;;;;5027905;28;20053;-74
2021/12/12 05:16:27;;;;;;;8.90;5.97;;;1.00;99.90;;;;;;5024323;28;20136;-74
2021/12/12 05:19:06;;;;;;;8.02;5.35;;;0.90;99.90;;;;;;5012753;28;20046;-74
2021/12/12 05:21:43;;;;;;;10.43;5.60;;;0.90;99.90;;;;;;5012003;28;20041;-74
2021/12/12 05:24:12;;;;;;;7.75;5.32;;;0.80;99.90;;;;;;5011862;28;20495;-74
2021/12/12 05:26:49;;;;;;;8.07;5.85;;;0.80;99.90;;;;;;5017602;28;20090;-74
2021/12/12 05:29:27;;;;;;;8.93;5.78;;;0.80;99.90;;;;;;5010316;28;20046;-74
2021/12/12 05:31:56;;;;;;;8.52;5.20;;;0.80;99.90;;;;;;5010586;28;20100;-74
2021/12/12 05:34:32;;;;;;;9.93;5.40;;;0.80;99.90;;;;;;5010566;28;20124;-74
2021/12/12 05:37:05;;;;;;;8.43;5.40;;;0.80;99.90;;;;;;5029267;28;20053;-74
2021/12/12 05:39:38;;;;;;;9.18;5.93;;;0.80;99.90;;;;;;5007668;28;20133;-74
2021/12/12 05:42:14;;;;;;;10.70;5.57;;;0.80;99.90;;;;;;5013375;28;20060;-74
2021/12/12 05:44:42;;;;;;;9.25;6.68;;;0.90;99.90;;;;;;5030101;28;20136;-74
2021/12/12 05:47:14;;;;;;;8.93;6.25;;;0.90;99.90;;;;;;5014734;28;20136;-74
2021/12/12 05:49:42;;;;;;;9.23;5.60;;;0.90;99.90;;;;;;5024939;28;20069;-74
2021/12/12 05:52:10;;;;;;;9.40;5.85;;;0.90;99.90;;;;;;5011571;28;20046;-74
2021/12/12 05:54:44;;;;;;;10.05;6.03;;;0.90;99.90;;;;;;5010380;28;20066;-74
2021/12/12 05:57:23;;;;;;;9.32;5.63;;;0.90;99.90;;;;;;5010415;28;20046;-74
2021/12/12 05:59:51;;;;;;;9.80;6.18;;;0.90;99.90;;;;;;5020763;28;20146;-74
2021/12/12 06:02:24;;;;;;;9.50;5.90;;;0.90;99.90;;;;;;5029609;28;20096;-74
2021/12/12 06:04:55;;;;;;;8.50;6.03;;;0.90;99.90;;;;;;5029742;28;20120;-74
2021/12/12 06:07:28;;;;;;;9.65;5.95;;;0.90;99.90;;;;;;5032776;28;20045;-74
2021/12/12 06:09:56;;;;;;;8.77;6.03;;;0.80;99.90;;;;;;5033645;28;20145;-74
2021/12/12 06:12:24;;;;;;;8.20;5.95;;;0.80;99.90;;;;;;5033957;28;20046;-74
2021/12/12 06:14:57;;;;;;;8.88;5.82;;;0.90;99.90;;;;;;5034125;28;20137;-73
2021/12/12 06:17:25;;;;;;;10.57;6.22;;;0.90;99.90;;;;;;5034093;28;20053;-73
2021/12/12 06:19:55;;;;;;;7.88;5.63;;;0.90;99.90;;;;;;5022015;28;20073;-73
2021/12/12 06:22:28;;;;;;;8.20;5.97;;;0.80;99.90;;;;;;5015559;28;20441;-74
2021/12/12 06:25:00;;;;;;;13.13;7.18;;;0.90;99.90;;;;;;5014231;28;20048;-73
2021/12/12 06:27:32;;;;;;;7.50;5.20;;;0.90;99.90;;;;;;5015514;28;20062;-73
2021/12/12 06:30:09;;;;;;;7.55;4.72;;;1.00;99.90;;;;;;5014794;28;20117;-74
2021/12/12 06:32:36;;;;;;;8.25;5.63;;;1.00;99.90;;;;;;5013901;28;20104;-74
2021/12/12 06:35:09;;;;;;;8.88;5.30;;;1.00;99.90;;;;;;5014950;28;20501;-74
2021/12/12 06:37:42;;;;;;;8.88;5.50;;;1.10;99.90;;;;;;5013894;28;20137;-73
2021/12/12 06:40:19;;;;;;;11.40;6.20;;;1.00;99.90;;;;;;5014742;28;20124;-74
2021/12/12 06:42:53;;;;;;;7.07;5.20;;;1.00;99.90;;;;;;5013744;28;20136;-74
2021/12/12 06:45:26;;;;;;;7.95;5.22;;;1.00;99.90;;;;;;5013708;28;20048;-74
2021/12/12 06:47:59;;;;;;;6.30;4.30;;;1.00;99.90;;;;;;5014991;28;20099;-73
2021/12/12 06:50:27;;;;;;;7.85;5.35;;;1.00;99.90;;;;;;5013647;28;20088;-74
2021/12/12 06:52:59;;;;;;;4.93;3.72;;;1.10;99.90;;;;;;5014814;28;20490;-74
2021/12/12 06:55:27;;;;;;;7.47;5.43;;;1.10;99.90;;;;;;5013477;28;20077;-74
2021/12/12 06:57:59;;;;;;;7.75;4.55;;;1.10;99.90;;;;;;5013644;28;20056;-73
2021/12/12 07:00:32;;;;;;;6.40;4.47;;;1.10;99.90;;;;;;5013315;28;20125;-74
2021/12/12 07:03:04;;;;;;;7.30;4.97;;;1.10;99.90;;;;;;5014966;28;20126;-74
2021/12/12 07:05:36;;;;;;;13.20;4.85;;;1.00;99.90;;;;;;5029455;28;20416;-74
2021/12/12 07:08:03;;;;;;;6.75;4.50;;;1.00;99.90;;;;;;5034389;28;20072;-74
2021/12/12 07:10:38;;;;;;;7.55;5.35;;;1.00;99.90;;;;;;5033192;28;20033;-73
2021/12/12 07:13:06;;;;;;;7.43;4.60;;;1.00;99.90;;;;;;5032989;28;20105;-74
2021/12/12 07:15:37;;;;;;;5.80;4.05;;;1.00;99.90;;;;;;5032573;28;20136;-74
2021/12/12 07:18:11;;;;;;;8.07;5.28;;;1.00;99.90;;;;;;5031730;28;20069;-73
2021/12/12 07:20:48;;;;;;;7.43;5.07;;;1.00;99.90;;;;;;5017125;28;20128;-74
2021/12/12 07:23:16;;;;;;;7.28;5.05;;;1.00;99.90;;;;;;5034081;28;20072;-74
2021/12/12 07:25:48;;;;;;;7.45;4.63;;;1.00;99.90;;;;;;5032810;28;20073;-74
2021/12/12 07:28:20;;;;;;;7.38;5.05;;;1.00;99.90;;;;;;5032206;28;20145;-74
2021/12/12 07:30:47;;;;;;;7.60;5.18;;;1.10;99.90;;;;;;5038066;28;20136;-74
2021/12/12 07:33:19;;;;;;;7.30;5.38;;;1.10;99.90;;;;;;5037076;28;20080;-74
2021/12/12 07:35:56;;;;;;;8.07;5.20;;;1.10;99.90;;;;;;5034707;28;20339;-73
2021/12/12 07:38:23;;;;;;;7.00;5.18;;;1.10;99.90;;;;;;5033152;28;20045;-74
2021/12/12 07:40:50;;;;;;;8.05;5.07;;;1.10;99.90;;;;;;5031913;28;20519;-74
2021/12/12 07:43:23;;;;;;;6.88;4.93;;;1.10;99.90;;;;;;5013869;28;20136;-74
2021/12/12 07:45:56;;;;;;;6.30;4.97;;;1.00;99.90;;;;;;5018866;28;20547;-73
2021/12/12 07:48:23;;;;;;;7.13;4.93;;;1.00;99.90;;;;;;5032438;28;20041;-74
2021/12/12 07:50:51;;;;;;;7.60;4.90;;;0.90;99.90;;;;;;5032399;28;20154;-74
2021/12/12 07:53:26;;;;;;;7.22;5.25;;;0.90;99.90;;;;;;5032142;28;20136;-73
2021/12/12 07:55:54;;;;;;;8.70;5.18;;;0.90;99.90;;;;;;5032103;28;20144;-74
2021/12/12 07:58:27;;;;;;;7.35;5.10;;;0.80;99.90;;;;;;5033501;28;20037;-73
2021/12/12 08:01:00;;;;;;;6.38;4.60;;;0.80;99.90;;;;;;5014633;28;20091;-74
2021/12/12 08:03:31;;;;;;;7.97;4.93;;;0.70;99.90;;;;;;5011633;28;20077;-74
2021/12/12 08:06:02;;;;;;;6.75;4.57;;;0.70;99.90;;;;;;5011362;28;20217;-73
2021/12/12 08:08:35;;;;;;;7.22;5.00;;;0.70;99.90;;;;;;5013007;28;20554;-74
2021/12/12 08:11:07;;;;;;;9.57;5.68;;;0.60;99.90;;;;;;5011535;28;20042;-74
2021/12/12 08:13:39;;;;;;;8.98;5.68;;;0.70;99.90;;;;;;5012681;28;20495;-74
2021/12/12 08:16:13;;;;;;;9.82;5.57;;;0.70;99.90;;;;;;5028613;28;20092;-74
2021/12/12 08:18:46;;;;;;;8.07;5.93;;;0.70;99.90;;;;;;5015562;28;20499;-74
2021/12/12 08:21:21;;;;;;;8.75;6.43;;;0.70;99.90;;;;;;5032460;28;20444;-74
2021/12/12 08:23:55;;;;;;;7.70;5.40;;;0.70;99.90;;;;;;5015304;28;20049;-73
2021/12/12 08:26:23;;;;;;;8.02;5.68;;;0.70;99.90;;;;;;5013484;28;20069;-74
2021/12/12 08:28:55;;;;;;;11.80;8.20;;;0.70;99.90;;;;;;4995369;28;20462;-74
2021/12/12 08:31:27;;;;;;;15.55;9.00;;;0.70;99.90;;;;;;5011172;28;20145;-73
2021/12/12 08:33:59;;;;;;;19.67;13.27;;;0.70;99.90;;;;;;5011113;28;20128;-73
2021/12/12 08:36:34;;;;;;;18.30;11.15;;;0.70;99.90;;;;;;5012734;28;20132;-74
2021/12/12 08:39:03;;;;;;;11.18;7.93;;;0.80;99.90;;;;;;5030619;28;20136;-74
2021/12/12 08:41:30;;;;;;;11.43;6.90;;;0.80;99.90;;;;;;5014183;28;20069;-74
2021/12/12 08:44:03;;;;;;;10.15;6.90;;;0.80;99.90;;;;;;5014898;28;20049;-73
2021/12/12 08:46:37;;;;;;;;;;;0.80;99.90;;;;;;5030794;28;20057;-74
2021/12/12 08:49:04;;;;;;;9.52;6.28;;;0.90;99.90;;;;;;5028866;28;19956;-73
2021/12/12 08:51:41;;;;;;;10.80;6.18;;;1.00;99.90;;;;;;5012196;28;20088;-74
2021/12/12 08:54:22;;;;;;;10.95;7.32;;;1.00;99.90;;;;;;5010678;28;20137;-74
2021/12/12 08:57:08;;;;;;;10.30;6.85;;;1.00;99.90;;;;;;5010476;28;20137;-74
2021/12/12 08:59:45;;;;;;;9.38;6.65;;;1.00;99.90;;;;;;5010798;28;20128;-74
2021/12/12 09:02:18;;;;;;;11.75;6.68;;;1.00;99.90;;;;;;5011516;28;20042;-73
2021/12/12 09:04:55;;;;;;;9.55;6.50;;;0.90;99.90;;;;;;5010776;28;20608;-74
2021/12/12 09:07:31;;;;;;;8.32;5.95;;;1.00;99.90;;;;;;5011386;28;20572;-74
2021/12/12 09:10:21;;;;;;;9.55;6.18;;;1.00;99.90;;;;;;5010893;28;20042;-73
2021/12/12 09:12:53;;;;;;;9.23;5.75;;;1.00;99.90;;;;;;5011083;28;20417;-74
2021/12/12 09:15:37;;;;;;;10.85;6.65;;;1.10;99.90;;;;;;5011696;28;20546;-74
2021/12/12 09:18:22;;;;;;;9.43;6.75;;;1.10;99.90;;;;;;5010829;28;20057;-74
2021/12/12 09:20:56;;;;;;;11.15;7.25;;;1.20;99.90;;;;;;5011989;28;20046;-74
2021/12/12 09:23:32;;;;;;;17.17;8.20;;;1.20;99.90;;;;;;5011537;28;20124;-74
2021/12/12 09:26:09;;;;;;;12.05;7.93;;;1.20;99.90;;;;;;5030572;28;20052;-74
2021/12/12 09:29:12;;;;;;;13.20;7.38;;;1.20;99.90;;;;;;5032491;28;20076;-73
2021/12/12 09:32:01;;;;;;;12.15;6.90;;;1.30;99.90;;;;;;5024884;28;20080;-75
2021/12/12 09:34:39;;;;;;;10.85;6.05;;;1.30;99.90;;;;;;5030574;28;20518;-74
2021/12/12 09:37:27;;;;;;;9.13;6.55;;;1.40;99.90;;;;;;5014140;28;20565;-73
2021/12/12 09:40:05;;;;;;;10.52;5.72;;;1.40;99.90;;;;;;5010834;28;20038;-74
2021/12/12 09:42:56;;;;;;;10.23;7.03;;;1.40;99.90;;;;;;4994779;28;20141;-74
2021/12/12 09:45:37;;;;;;;10.43;6.13;;;1.50;99.90;;;;;;5010466;28;20132;-75
2021/12/12 09:52:10;;;;;;;12.20;6.75;;;1.60;99.90;;;;;;5030349;28;20046;-75
2021/12/12 09:54:46;;;;;;;8.77;5.55;;;1.70;99.90;;;;;;5030391;28;20581;-74
2021/12/12 09:57:18;;;;;;;10.00;6.22;;;1.70;99.90;;;;;;5027145;28;20137;-74
2021/12/12 10:00:12;;;;;;;9.18;6.20;;;1.70;99.90;;;;;;5010351;28;20052;-74
2021/12/12 10:02:47;;;;;;;10.43;6.47;;;1.70;99.90;;;;;;5010361;28;20137;-74
2021/12/12 10:05:36;;;;;;;10.55;6.25;;;1.70;99.90;;;;;;5010068;28;20483;-74
2021/12/12 10:08:25;;;;;;;9.02;5.88;;;1.80;99.90;;;;;;5011654;28;20116;-75
2021/12/12 10:11:00;;;;;;;10.48;5.72;;;1.80;99.90;;;;;;5011616;28;20132;-74
2021/12/12 10:13:44;;;;;;;9.15;6.43;;;1.80;99.90;;;;;;5010245;28;20078;-74
2021/12/12 10:16:30;;;;;;;8.60;6.20;;;1.90;99.90;;;;;;5018813;28;20224;-74
2021/12/12 10:19:13;;;;;;;10.75;6.88;;;1.90;99.90;;;;;;5014302;28;20129;-74
2021/12/12 10:22:09;;;;;;;9.90;6.28;;;2.00;99.90;;;;;;5030092;28;20140;-74
2021/12/12 10:24:43;;;;;;;10.63;6.47;;;2.10;99.90;;;;;;5033631;28;20073;-74
2021/12/12 10:27:18;;;;;;;9.93;7.15;;;2.10;99.90;;;;;;5030408;28;20065;-74
2021/12/12 10:30:05;;;;;;;11.75;6.65;;;2.20;99.90;;;;;;5012762;28;20124;-74
2021/12/12 10:32:45;;;;;;;9.23;6.07;;;2.30;99.90;;;;;;5010460;28;20045;-74
2021/12/12 10:35:24;;;;;;;10.25;6.10;;;2.40;99.90;;;;;;5010026;28;20077;-74
2021/12/12 10:37:54;;;;;;;10.38;7.22;;;2.50;99.90;;;;;;5010263;28;20104;-74
2021/12/12 10:40:41;;;;;;;11.57;6.80;;;2.50;99.90;;;;;;5012020;28;20120;-74
2021/12/12 10:43:12;;;;;;;11.20;7.10;;;2.60;99.90;;;;;;5011277;28;20112;-74
2021/12/12 10:45:55;;;;;;;10.98;7.13;;;2.70;99.90;;;;;;5027929;28;20069;-74
2021/12/12 10:49:00;;;;;;;11.02;7.60;;;2.70;99.90;;;;;;5031145;28;20382;-74
2021/12/12 10:51:37;;;;;;;;;;;2.80;99.90;;;;;;5029895;28;20400;-74
2021/12/12 10:54:21;;;;;;;11.10;7.07;;;2.90;99.90;;;;;;5013430;28;19925;-74
2021/12/12 10:57:02;;;;;;;11.38;7.43;;;2.90;99.90;;;;;;4998103;28;20069;-74
2021/12/12 10:59:39;;;;;;;10.85;7.32;;;3.00;99.90;;;;;;4997862;28;20141;-74
2021/12/12 11:02:11;;;;;;;9.80;6.55;;;3.00;99.90;;;;;;5013442;28;20038;-74
2021/12/12 11:04:51;;;;;;;10.77;8.15;;;3.00;99.90;;;;;;5024808;28;20038;-74
2021/12/12 11:07:25;;;;;;;9.85;6.70;;;3.00;99.90;;;;;;5033289;28;20141;-75
2021/12/12 11:10:09;;;;;;;10.43;6.97;;;3.00;99.90;;;;;;5034097;28;20116;-75
2021/12/12 11:12:51;;;;;;;11.43;7.93;;;3.00;99.90;;;;;;5032930;28;20423;-75
2021/12/12 11:15:38;;;;;;;12.23;7.97;;;3.00;99.90;;;;;;5030672;28;20132;-74
2021/12/12 11:18:14;;;;;;;12.48;8.57;;;3.10;99.90;;;;;;5013350;28;20088;-74
2021/12/12 11:20:50;;;;;;;12.13;7.00;;;3.20;99.90;;;;;;5012918;28;20132;-74
2021/12/12 11:23:33;;;;;;;11.15;7.72;;;3.20;99.90;;;;;;5013140;28;20129;-75
2021/12/12 11:26:20;;;;;;;14.30;8.98;;;3.20;99.90;;;;;;5014109;28;20121;-74
2021/12/12 11:29:00;;;;;;;10.93;7.88;;;3.20;99.90;;;;;;4996999;28;20069;-74
2021/12/12 11:31:35;;;;;;;11.65;8.43;;;3.20;99.90;;;;;;5012200;28;20042;-75
2021/12/12 11:34:08;;;;;;;13.57;8.98;;;3.20;99.90;;;;;;5012703;28;20134;-74
2021/12/12 11:37:18;;;;;;;11.82;8.50;;;3.20;99.90;;;;;;5012312;28;20144;-74
2021/12/12 11:40:06;;;;;;;11.60;7.53;;;3.20;99.90;;;;;;5022071;28;20136;-74
2021/12/12 11:42:45;;;;;;;11.23;7.30;;;3.20;99.90;;;;;;5032056;28;20129;-75
2021/12/12 11:45:29;;;;;;;13.15;8.45;;;3.30;99.90;;;;;;5031961;28;20128;-74
2021/12/12 11:48:22;;;;;;;12.75;8.38;;;3.30;99.90;;;;;;5032134;28;20076;-74
2021/12/12 11:51:27;;;;;;;12.55;8.40;;;3.30;99.90;;;;;;5032222;28;20065;-74
2021/12/12 11:54:32;;;;;;;11.50;7.90;;;3.30;99.90;;;;;;5032022;28;20128;-74
2021/12/12 11:57:16;;;;;;;11.10;6.85;;;3.30;99.90;;;;;;5031405;28;20084;-74
2021/12/12 11:59:51;;;;;;;11.65;7.18;;;3.30;99.90;;;;;;5015451;28;20136;-74
2021/12/12 12:02:56;;;;;;;11.55;7.90;;;3.30;99.90;;;;;;5031615;28;20073;-74
2021/12/12 12:06:02;;;;;;;10.48;7.13;;;3.30;99.90;;;;;;4989886;28;20085;-74
2021/12/12 12:08:58;;;;;;;10.25;7.13;;;3.30;99.90;;;;;;4952667;28;20142;-74
2021/12/12 12:11:56;;;;;;;9.98;7.10;;;3.40;99.90;;;;;;5011889;28;20077;-74
2021/12/12 12:15:03;;;;;;;11.23;7.28;;;3.40;99.90;;;;;;5011841;28;20113;-74
2021/12/12 12:17:59;;;;;;;11.77;7.70;;;3.40;99.90;;;;;;5011611;28;20088;-74
2021/12/12 12:20:37;;;;;;;10.80;6.40;;;3.40;99.90;;;;;;5011677;28;20048;-74
2021/12/12 12:23:48;;;;;;;10.98;6.82;;;3.50;99.90;;;;;;5012790;28;20132;-74
2021/12/12 12:29:33;;;;;;;10.35;7.38;;;3.50;99.90;;;;;;5012770;28;20129;-75
2021/12/12 12:32:04;;;;;;;9.75;6.72;;;3.40;99.90;;;;;;5012762;28;20133;-74
2021/12/12 12:34:50;;;;;;;10.27;6.60;;;3.50;99.90;;;;;;5021478;28;20044;-75
2021/12/12 12:37:47;;;;;;;9.43;6.72;;;3.50;99.90;;;;;;5032555;28;20065;-75
2021/12/12 12:40:51;;;;;;;9.57;5.75;;;3.50;99.90;;;;;;5031403;28;20124;-75
2021/12/12 12:44:01;;;;;;;9.63;6.50;;;3.50;99.90;;;;;;5031304;28;20069;-75
2021/12/12 12:47:05;;;;;;;9.30;6.38;;;3.50;99.90;;;;;;5021802;28;20142;-75
2021/12/12 12:50:14;;;;;;;10.18;6.40;;;3.50;99.90;;;;;;5011905;28;20140;-74
2021/12/12 12:53:05;;;;;;;9.57;6.18;;;3.60;99.90;;;;;;4995021;28;20148;-75
2021/12/12 12:55:34;;;;;;;9.93;6.65;;;3.60;99.90;;;;;;5013175;28;20053;-75
2021/12/12 12:58:19;;;;;;;10.65;6.53;;;3.60;99.90;;;;;;5014649;28;20049;-74
2021/12/12 13:01:12;;;;;;;9.27;6.57;;;3.70;99.90;;;;;;5031041;28;20459;-75
2021/12/12 13:03:49;;;;;;;8.50;5.88;;;3.70;99.90;;;;;;5031211;28;20041;-75
2021/12/12 13:06:35;;;;;;;9.45;6.32;;;3.70;99.90;;;;;;5035574;28;20366;-74
2021/12/12 13:09:23;;;;;;;8.57;6.07;;;3.80;99.90;;;;;;5003011;28;20042;-74
2021/12/12 13:12:08;;;;;;;8.05;5.95;;;3.80;99.90;;;;;;5011464;28;20454;-75
2021/12/12 13:14:58;;;;;;;9.05;6.38;;;3.80;99.90;;;;;;5010976;28;20065;-75
2021/12/12 13:17:53;;;;;;;7.75;5.47;;;3.70;99.90;;;;;;5010358;28;20064;-75
2021/12/12 13:20:23;;;;;;;7.55;5.65;;;3.60;99.90;;;;;;5019805;28;20124;-75
2021/12/12 13:23:09;;;;;;;8.68;5.97;;;3.60;99.90;;;;;;5030381;28;20152;-75
2021/12/12 13:25:46;;;;;;;7.40;5.43;;;3.60;99.90;;;;;;5014235;28;20052;-75
2021/12/12 13:28:31;;;;;;;9.10;5.53;;;3.70;99.90;;;;;;5030712;28;20596;-75
2021/12/12 13:31:36;;;;;;;7.28;5.72;;;3.70;99.90;;;;;;5014717;28;20132;-74
2021/12/12 13:34:29;;;;;;;7.22;5.50;;;3.70;99.90;;;;;;5029887;28;20052;-75
2021/12/12 13:37:26;;;;;;;8.30;5.50;;;3.70;99.90;;;;;;5014644;28;20482;-75
2021/12/12 13:40:23;;;;;;;7.43;5.63;;;3.70;99.90;;;;;;5030257;28;20111;-75
2021/12/12 13:43:08;;;;;;;8.32;5.35;;;3.70;99.90;;;;;;5030434;28;20045;-75
2021/12/12 13:45:57;;;;;;;8.18;5.63;;;3.60;99.90;;;;;;4997021;28;20141;-75
2021/12/12 13:49:03;;;;;;;9.25;5.05;;;3.50;99.90;;;;;;5010433;28;20070;-75
2021/12/12 13:51:41;;;;;;;6.75;5.03;;;3.60;99.90;;;;;;5010821;28;20627;-75
2021/12/12 13:54:16;;;;;;;7.10;5.07;;;3.60;99.90;;;;;;5010649;28;20042;-75
2021/12/12 13:56:58;;;;;;;6.40;4.53;;;3.60;99.90;;;;;;5019047;28;20296;-75
2021/12/12 14:00:00;;;;;;;6.18;4.45;;;3.60;99.90;;;;;;5029866;28;20042;-75
2021/12/12 14:02:35;;;;;;;6.25;4.45;;;3.60;99.90;;;;;;5030121;28;20047;-75
2021/12/12 14:05:19;;;;;;;8.10;5.18;;;3.60;99.90;;;;;;5013925;28;20521;-75
2021/12/12 14:08:01;;;;;;;5.82;4.43;;;3.60;99.90;;;;;;5025523;28;20125;-75
2021/12/12 14:10:39;;;;;;;14.40;6.57;;;3.60;99.90;;;;;;5011554;28;20120;-75